Time;durP1;ratioP1;P1;durP2;ratioP2;P2;SDS_P1;SDS_P2;PMS_P1;PMS_P2;Temp;Humidity;BMP_temperature;BMP_pressure;BME280_temperature;BME280_humidity;BME280_pressure;Samples;Min_cycle;Max_cycle;Signal;HPM_P1;HPM_P2
2022/07/14 00:00:11;;;;;;;;;;;;;;;20.13;100.00;100129.03;3051914;19;1043;-49
2022/07/14 00:01:13;;;;;;;;;;;;;;;20.07;100.00;100130.53;3052848;19;1324;-50
2022/07/14 00:02:17;;;;;;;;;;;;;;;20.01;100.00;100130.34;3054250;19;1695;-48
2022/07/14 00:03:19;;;;;;;;;;;;;;;19.95;100.00;100131.00;3056836;19;1028;-48
2022/07/14 00:04:24;;;;;;;;;;;;;;;19.90;100.00;100117.13;3056601;19;1248;-49
2022/07/14 00:05:26;;;;;;;;;;;;;;;19.84;100.00;100115.03;3055985;19;930;-49
2022/07/14 00:06:30;;;;;;;;;;;;;;;19.78;100.00;100114.69;3056343;19;1610;-48
2022/07/14 00:07:32;;;;;;;;;;;;;;;19.73;100.00;100117.03;3056758;19;989;-48
2022/07/14 00:08:36;;;;;;;;;;;;;;;19.68;100.00;100113.13;3055854;19;1462;-48
2022/07/14 00:09:38;;;;;;;;;;;;;;;19.63;100.00;100110.91;3055773;19;994;-48
2022/07/14 00:10:42;;;;;;;;;;;;;;;19.58;100.00;100115.94;3056334;19;1574;-49
2022/07/14 00:11:44;;;;;;;;;;;;;;;19.52;100.00;100102.22;3056348;19;904;-49
2022/07/14 00:12:49;;;;;;;;;;;;;;;19.48;100.00;100095.38;3054557;19;1210;-48
2022/07/14 00:13:51;;;;;;;;;;;;;;;19.42;100.00;100100.44;3048422;19;1293;-49
2022/07/14 00:14:55;;;;;;;;;;;;;;;19.38;100.00;100103.63;3048675;19;1142;-49
2022/07/14 00:15:57;;;;;;;;;;;;;;;19.34;100.00;100099.53;3048352;19;1470;-49
2022/07/14 00:17:01;;;;;;;;;;;;;;;19.30;100.00;100098.16;3050165;19;1708;-49
2022/07/14 00:18:03;;;;;;;;;;;;;;;19.25;100.00;100097.78;3050056;19;1442;-49
2022/07/14 00:19:08;;;;;;;;;;;;;;;19.20;100.00;100086.63;3050554;19;1097;-48
2022/07/14 00:20:10;;;;;;;;;;;;;;;19.16;100.00;100085.22;3051253;19;1008;-48
2022/07/14 00:21:15;;;;;;;;;;;;;;;19.12;100.00;100081.97;3055219;19;1633;-48
2022/07/14 00:22:17;;;;;;;;;;;;;;;19.08;100.00;100083.28;3056130;19;885;-49
2022/07/14 00:23:28;;;;;;;;;;;;;;;19.02;100.00;100073.97;3055384;19;1666;-48
2022/07/14 00:24:30;;;;;;;;;;;;;;;18.99;100.00;100073.44;3056411;19;924;-48
2022/07/14 00:25:35;;;;;;;;;;;;;;;18.82;100.00;100044.59;3056200;19;940;-49
2022/07/14 00:26:39;;;;;;;;;;;;;;;18.91;100.00;100059.88;3056638;19;1336;-48
2022/07/14 00:27:44;;;;;;;;;;;;;;;18.87;100.00;100064.72;3056147;19;1150;-49
2022/07/14 00:28:46;;;;;;;;;;;;;;;18.84;100.00;100064.19;3055527;19;1267;-48
2022/07/14 00:29:50;;;;;;;;;;;;;;;18.80;100.00;100057.41;3054867;19;1136;-49
2022/07/14 00:30:52;;;;;;;;;;;;;;;18.75;100.00;100063.28;3054645;19;1865;-49
2022/07/14 00:31:57;;;;;;;;;;;;;;;18.71;100.00;100061.94;3056413;19;987;-49
2022/07/14 00:32:59;;;;;;;;;;;;;;;18.67;100.00;100047.88;3056244;19;973;-49
2022/07/14 00:34:03;;;;;;;;;;;;;;;18.65;100.00;100049.03;3055641;19;1758;-48
2022/07/14 00:35:06;;;;;;;;;;;;;;;18.63;100.00;100056.44;3053227;19;1104;-48
2022/07/14 00:36:11;;;;;;;;;;;;;;;18.60;100.00;100062.13;3047327;19;1365;-48
2022/07/14 00:37:13;;;;;;;;;;;;;;;18.57;100.00;100051.63;3046564;19;1449;-49
2022/07/14 00:38:17;;;;;;;;;;;;;;;18.52;100.00;100048.53;3047302;19;1074;-49
2022/07/14 00:39:19;;;;;;;;;;;;;;;18.50;100.00;100048.69;3050031;19;1091;-48
2022/07/14 00:40:23;;;;;;;;;;;;;;;18.47;100.00;100049.03;3049374;19;1876;-49
2022/07/14 00:41:25;;;;;;;;;;;;;;;18.44;100.00;100045.78;3049439;19;1181;-49
2022/07/14 00:42:34;;;;;;;;;;;;;;;18.41;100.00;100041.53;3050668;19;1236;-48
2022/07/14 00:43:36;;;;;;;;;;;;;;;18.38;100.00;100035.56;3055892;19;1222;-49
2022/07/14 00:44:41;;;;;;;;;;;;;;;18.34;100.00;100033.22;3054887;19;1455;-49
2022/07/14 00:45:45;;;;;;;;;;;;;;;18.32;100.00;100040.63;3054905;19;1063;-50
2022/07/14 00:46:47;;;;;;;;;;;;;;;18.27;100.00;100029.41;3056470;19;1073;-48
2022/07/14 00:47:51;;;;;;;;;;;;;;;18.27;100.00;100028.56;3056022;19;1055;-49
2022/07/14 00:48:56;;;;;;;;;;;;;;;18.22;100.00;100020.94;3055933;19;1078;-48
2022/07/14 00:49:58;;;;;;;;;;;;;;;18.19;100.00;100026.66;3056270;19;978;-48
2022/07/14 00:51:03;;;;;;;;;;;;;;;18.16;100.00;100021.53;3054872;19;1866;-50
2022/07/14 00:52:06;;;;;;;;;;;;;;;18.13;100.00;100026.41;3056386;19;1033;-49
2022/07/14 00:53:11;;;;;;;;;;;;;;;18.08;100.00;100024.19;3054591;19;1295;-48
2022/07/14 00:54:24;;;;;;;;;;;;;;;18.05;100.00;100029.88;3054922;19;1058;-48
2022/07/14 00:55:30;;;;;;;;;;;;;;;18.00;100.00;100018.69;3055793;19;912;-49
2022/07/14 00:56:31;;;;;;;;;;;;;;;17.97;100.00;100032.50;3055605;19;1103;-49
2022/07/14 00:57:36;;;;;;;;;;;;;;;17.94;100.00;100019.31;3053865;19;1164;-49
2022/07/14 00:58:38;;;;;;;;;;;;;;;17.92;100.00;100026.69;3047762;19;1066;-49
2022/07/14 00:59:43;;;;;;;;;;;;;;;17.90;100.00;100020.59;3046612;19;1717;-50
2022/07/14 01:00:47;;;;;;;;;;;;;;;17.79;100.00;100004.63;3047155;19;1175;-49
2022/07/14 01:01:49;;;;;;;;;;;;;;;17.83;100.00;100017.69;3050784;19;912;-48
2022/07/14 01:02:54;;;;;;;;;;;;;;;17.82;100.00;100015.97;3050846;19;1192;-49
2022/07/14 01:03:56;;;;;;;;;;;;;;;17.83;100.00;100019.53;3049185;19;1296;-49
2022/07/14 01:05:00;;;;;;;;;;;;;;;17.81;100.00;100006.19;3050207;19;1146;-49
2022/07/14 01:06:04;;;;;;;;;;;;;;;17.80;100.00;100014.41;3055443;19;1165;-48
2022/07/14 01:07:10;;;;;;;;;;;;;;;17.79;100.00;100007.31;3055654;19;933;-49
2022/07/14 01:08:12;;;;;;;;;;;;;;;17.77;100.00;100010.16;3056044;19;916;-49
2022/07/14 01:09:17;;;;;;;;;;;;;;;17.75;100.00;100016.75;3055233;19;972;-49
2022/07/14 01:10:19;;;;;;;;;;;;;;;17.73;100.00;100007.94;3054131;19;1404;-49
2022/07/14 01:11:24;;;;;;;;;;;;;;;17.73;100.00;100013.34;3054103;19;1869;-49
2022/07/14 01:12:28;;;;;;;;;;;;;;;17.72;100.00;100011.66;3054580;19;1108;-49
2022/07/14 01:13:33;;;;;;;;;;;;;;;17.71;100.00;100007.25;3054215;19;980;-49
2022/07/14 01:14:35;;;;;;;;;;;;;;;17.70;100.00;100008.25;3054455;19;1170;-49
2022/07/14 01:15:40;;;;;;;;;;;;;;;17.69;100.00;100007.38;3054530;19;1012;-49
2022/07/14 01:16:42;;;;;;;;;;;;;;;17.68;100.00;100002.13;3055429;19;981;-49
2022/07/14 01:17:47;;;;;;;;;;;;;;;17.65;100.00;100005.97;3055812;19;1237;-48
2022/07/14 01:18:49;;;;;;;;;;;;;;;17.64;100.00;100009.69;3055561;19;997;-48
2022/07/14 01:19:55;;;;;;;;;;;;;;;17.61;100.00;100005.44;3053650;19;938;-49
2022/07/14 01:20:57;;;;;;;;;;;;;;;17.60;100.00;100005.56;3046168;19;1009;-49
2022/07/14 01:22:03;;;;;;;;;;;;;;;17.58;100.00;100015.66;3046576;19;1074;-49
2022/07/14 01:23:08;;;;;;;;;;;;;;;17.56;100.00;100004.16;3045814;19;1219;-49
2022/07/14 01:24:10;;;;;;;;;;;;;;;17.53;100.00;100005.31;3049653;19;950;-49
2022/07/14 01:25:16;;;;;;;;;;;;;;;17.51;100.00;100007.31;3049233;19;1218;-49
2022/07/14 01:26:18;;;;;;;;;;;;;;;17.48;100.00;100004.94;3049390;19;949;-48
2022/07/14 01:27:23;;;;;;;;;;;;;;;17.45;100.00;100001.69;3049716;19;1113;-49
2022/07/14 01:28:27;;;;;;;;;;;;;;;17.42;100.00;100000.13;3054887;19;917;-49
2022/07/14 01:29:29;;;;;;;;;;;;;;;17.39;100.00;100011.22;3054106;19;1056;-48
2022/07/14 01:30:34;;;;;;;;;;;;;;;17.37;100.00;100007.84;3055074;19;1793;-49
2022/07/14 01:31:35;;;;;;;;;;;;;;;17.34;100.00;99999.19;3054551;19;1849;-49
2022/07/14 01:32:40;;;;;;;;;;;;;;;17.33;100.00;99997.47;3055367;19;966;-48
2022/07/14 01:33:42;;;;;;;;;;;;;;;17.31;100.00;99996.78;3055668;19;954;-48
2022/07/14 01:34:47;;;;;;;;;;;;;;;17.28;100.00;99993.38;3053633;19;1811;-49
2022/07/14 01:35:49;;;;;;;;;;;;;;;17.25;100.00;99990.16;3054374;19;1194;-48
2022/07/14 01:36:54;;;;;;;;;;;;;;;17.22;100.00;99993.13;3053845;19;1223;-48
2022/07/14 01:37:56;;;;;;;;;;;;;;;17.20;100.00;99978.94;3055572;19;1230;-48
2022/07/14 01:39:00;;;;;;;;;;;;;;;17.18;100.00;99975.53;3054902;19;955;-49
2022/07/14 01:40:02;;;;;;;;;;;;;;;17.16;100.00;99985.63;3054268;19;930;-48
2022/07/14 01:41:07;;;;;;;;;;;;;;;17.13;100.00;99975.16;3053831;19;893;-48
2022/07/14 01:42:11;;;;;;;;;;;;;;;17.10;100.00;99973.59;3054181;19;1079;-48
2022/07/14 01:43:15;;;;;;;;;;;;;;;17.08;100.00;99974.75;3045845;19;1073;-48
2022/07/14 01:44:17;;;;;;;;;;;;;;;17.04;100.00;99965.25;3045204;19;1071;-49
2022/07/14 01:45:22;;;;;;;;;;;;;;;17.03;100.00;99977.03;3046043;19;1666;-48
2022/07/14 01:46:24;;;;;;;;;;;;;;;17.00;100.00;99978.19;3048622;19;857;-48
2022/07/14 01:47:29;;;;;;;;;;;;;;;16.98;100.00;99982.03;3048793;19;983;-49
2022/07/14 01:48:32;;;;;;;;;;;;;;;16.97;100.00;99983.03;3049591;19;1366;-48
2022/07/14 01:49:36;;;;;;;;;;;;;;;16.95;100.00;99985.00;3049614;19;1092;-48
2022/07/14 01:50:44;;;;;;;;;;;;;;;16.92;100.00;99981.59;3053993;19;1207;-48
2022/07/14 01:51:46;;;;;;;;;;;;;;;16.92;100.00;99980.75;3053074;19;1847;-48
2022/07/14 01:52:50;;;;;;;;;;;;;;;16.91;100.00;99985.28;3054526;19;972;-48
2022/07/14 01:53:54;;;;;;;;;;;;;;;16.90;100.00;99980.91;3054228;19;968;-48
2022/07/14 01:54:58;;;;;;;;;;;;;;;16.89;100.00;99971.16;3053821;19;1213;-47
2022/07/14 01:56:00;;;;;;;;;;;;;;;16.90;100.00;99972.81;3053966;19;956;-48
2022/07/14 01:57:06;;;;;;;;;;;;;;;16.89;100.00;99971.16;3053767;19;1607;-48
2022/07/14 01:58:10;;;;;;;;;;;;;;;16.89;100.00;99973.84;3053643;19;1000;-48
2022/07/14 01:59:12;;;;;;;;;;;;;;;16.89;100.00;99976.53;3054410;19;1023;-48
2022/07/14 02:00:17;;;;;;;;;;;;;;;16.88;100.00;99965.91;3053477;19;1772;-49
2022/07/14 02:02:41;;;;;;;;;;;;;;;16.90;100.00;99966.59;3054248;19;1096;-49
2022/07/14 02:03:45;;;;;;;;;;;;;;;16.89;100.00;99968.44;3055132;19;1081;-47
2022/07/14 02:04:49;;;;;;;;;;;;;;;16.89;100.00;99970.28;3051696;19;1191;-47
2022/07/14 02:05:52;;;;;;;;;;;;;;;16.90;100.00;99970.13;3045555;19;1296;-49
2022/07/14 02:06:57;;;;;;;;;;;;;;;16.88;100.00;99961.34;3045783;19;1039;-48
2022/07/14 02:08:18;;;;;;;;;;;;;;;16.87;100.00;99953.41;3046733;19;1142;-48
2022/07/14 02:12:10;;;;;;;;;;;;;;;16.88;100.00;99969.44;3048465;19;1191;-48
2022/07/14 02:12:11;;;;;;;;;;;;;;;16.86;100.00;99971.44;3049248;19;1904;-48
2022/07/14 02:13:13;;;;;;;;;;;;;;;16.84;100.00;99967.19;3053783;19;1057;-48
2022/07/14 02:14:18;;;;;;;;;;;;;;;16.83;100.00;99973.56;3054263;19;1703;-49
2022/07/14 02:15:20;;;;;;;;;;;;;;;16.80;100.00;99972.00;3055453;19;1009;-48
2022/07/14 02:16:27;;;;;;;;;;;;;;;16.79;100.00;99970.28;3054144;19;1001;-48
2022/07/14 02:17:29;;;;;;;;;;;;;;;16.79;100.00;99981.06;3053944;19;1164;-48
2022/07/14 02:18:34;;;;;;;;;;;;;;;16.76;100.00;99969.75;3053886;19;983;-48
2022/07/14 02:19:36;;;;;;;;;;;;;;;16.75;100.00;99977.00;3053724;19;966;-48
2022/07/14 02:20:41;;;;;;;;;;;;;;;16.74;100.00;99967.22;3053769;19;1722;-48
2022/07/14 02:21:42;;;;;;;;;;;;;;;16.74;100.00;99972.59;3053782;19;1166;-48
2022/07/14 02:22:47;;;;;;;;;;;;;;;16.75;100.00;99978.84;3054249;19;1087;-48
2022/07/14 02:23:49;;;;;;;;;;;;;;;16.73;100.00;99976.28;3053750;19;1181;-48
2022/07/14 02:24:54;;;;;;;;;;;;;;;16.72;100.00;99971.91;3052172;19;1019;-48
2022/07/14 02:25:56;;;;;;;;;;;;;;;16.72;100.00;99977.28;3054074;19;1255;-48
2022/07/14 02:27:00;;;;;;;;;;;;;;;16.72;100.00;99979.97;3052415;19;1246;-49
2022/07/14 02:28:03;;;;;;;;;;;;;;;16.71;100.00;99978.28;3046159;19;968;-48
2022/07/14 02:29:07;;;;;;;;;;;;;;;16.56;100.00;99947.38;3045899;19;1094;-48
2022/07/14 02:30:09;;;;;;;;;;;;;;;16.70;100.00;99976.56;3045733;19;887;-48
2022/07/14 02:31:14;;;;;;;;;;;;;;;16.69;100.00;99974.88;3047780;19;997;-48
2022/07/14 02:32:16;;;;;;;;;;;;;;;16.69;100.00;99974.88;3047770;19;1889;-48
2022/07/14 02:33:23;;;;;;;;;;;;;;;16.68;100.00;99978.56;3047591;19;1176;-48
2022/07/14 02:34:25;;;;;;;;;;;;;;;16.69;100.00;99982.09;3049160;19;1212;-49
2022/07/14 02:35:29;;;;;;;;;;;;;;;16.70;100.00;99976.56;3053225;19;1018;-47
2022/07/14 02:36:32;;;;;;;;;;;;;;;16.73;100.00;99986.22;3053574;19;1059;-49
2022/07/14 02:37:37;;;;;;;;;;;;;;;16.75;100.00;99979.69;3052850;19;1243;-48
2022/07/14 02:38:39;;;;;;;;;;;;;;;16.77;100.00;99972.31;3053526;19;972;-49
2022/07/14 02:39:43;;;;;;;;;;;;;;;16.81;100.00;99973.69;3053107;19;965;-48
2022/07/14 02:40:45;;;;;;;;;;;;;;;16.84;100.00;99978.81;3053876;19;1171;-48
2022/07/14 02:41:50;;;;;;;;;;;;;;;16.87;100.00;99970.44;3053356;19;1736;-48
2022/07/14 02:42:52;;;;;;;;;;;;;;;16.89;100.00;99973.84;3054371;19;1188;-48
2022/07/14 02:43:57;;;;;;;;;;;;;;;16.90;100.00;99972.81;3052903;19;1175;-48
2022/07/14 02:45:01;;;;;;;;;;;;;;;16.95;100.00;99974.22;3053588;19;904;-47
2022/07/14 02:46:03;;;;;;;;;;;;;;;16.99;100.00;99971.09;3053598;19;1283;-48
2022/07/14 02:47:08;;;;;;;;;;;;;;;17.03;100.00;99967.09;3053699;19;1041;-48
2022/07/14 02:48:11;;;;;;;;;;;;;;;17.08;100.00;99972.03;3053227;19;968;-48
2022/07/14 02:49:16;;;;;;;;;;;;;;;17.13;100.00;99969.78;3053776;19;1135;-48
2022/07/14 02:50:18;;;;;;;;;;;;;;;17.19;100.00;99969.16;3045555;19;996;-48
2022/07/14 02:51:22;;;;;;;;;;;;;;;17.26;100.00;99972.97;3044602;19;1605;-48
2022/07/14 02:52:25;;;;;;;;;;;;;;;17.30;100.00;99977.03;3044263;19;1878;-48
2022/07/14 02:53:31;;;;;;;;;;;;;;;17.37;100.00;99983.56;3047197;19;1171;-49
2022/07/14 02:54:33;;;;;;;;;;;;;;;17.41;100.00;99984.94;3048182;19;1036;-48
2022/07/14 02:55:38;;;;;;;;;;;;;;;17.46;100.00;99985.34;3047542;19;953;-48
2022/07/14 02:56:41;;;;;;;;;;;;;;;17.51;100.00;99991.13;3047885;19;1339;-49
2022/07/14 02:57:46;;;;;;;;;;;;;;;17.56;100.00;100002.31;3053446;19;941;-48
2022/07/14 02:58:48;;;;;;;;;;;;;;;17.60;100.00;99995.63;3053539;19;1054;-49
2022/07/14 02:59:54;;;;;;;;;;;;;;;17.66;100.00;100007.69;3053732;19;1021;-48
2022/07/14 03:00:56;;;;;;;;;;;;;;;17.71;100.00;100015.34;3053741;19;1058;-49
2022/07/14 03:02:00;;;;;;;;;;;;;;;17.77;100.00;100025.50;3052634;19;953;-50
2022/07/14 03:03:05;;;;;;;;;;;;;;;17.84;100.00;100027.47;3053723;19;1234;-48
2022/07/14 03:04:10;;;;;;;;;;;;;;;17.87;100.00;100026.31;3053683;19;1043;-48
2022/07/14 03:05:12;;;;;;;;;;;;;;;17.90;100.00;100036.78;3053018;19;1206;-49
2022/07/14 03:06:18;;;;;;;;;;;;;;;17.90;100.00;100036.78;3053655;19;1147;-48
2022/07/14 03:07:24;;;;;;;;;;;;;;;17.89;100.00;100041.34;3053251;19;1104;-49
2022/07/14 03:08:28;;;;;;;;;;;;;;;17.87;100.00;100047.91;3052938;19;1190;-48
2022/07/14 03:09:31;;;;;;;;;;;;;;;17.86;100.00;100047.06;3053267;19;1009;-49
2022/07/14 03:10:36;;;;;;;;;;;;;;;17.86;100.00;100059.72;3052277;19;1049;-48
2022/07/14 03:11:38;;;;;;;;;;;;;;;17.88;100.00;100071.19;3052383;19;1321;-48
2022/07/14 03:12:42;;;;;;;;;;;;;;;17.91;100.00;100063.66;3045241;19;1841;-48
2022/07/14 03:13:44;;;;;;;;;;;;;;;17.97;100.00;100062.19;3044137;19;1504;-48
2022/07/14 03:14:51;;;;;;;;;;;;;;;18.04;100.00;100059.72;3044640;19;984;-48
2022/07/14 03:15:53;;;;;;;;;;;;;;;18.13;100.00;100066.91;3047370;19;1291;-48
2022/07/14 03:16:57;;;;;;;;;;;;;;;18.21;100.00;100073.25;3047432;19;1266;-48
2022/07/14 03:18:02;;;;;;;;;;;;;;;18.28;100.00;100063.53;3047709;19;1322;-49
2022/07/14 03:19:09;;;;;;;;;;;;;;;18.35;100.00;100064.59;3048019;19;1126;-48
2022/07/14 03:20:12;;;;;;;;;;;;;;;18.44;100.00;100073.66;3053474;19;1013;-48
2022/07/14 03:21:17;;;;;;;;;;;;;;;18.49;100.00;100079.41;3052691;19;1590;-48
2022/07/14 03:22:23;;;;;;;;;;;;;;;18.56;100.00;100088.63;3053608;19;973;-49
2022/07/14 03:23:27;;;;;;;;;;;;;;;18.65;100.00;100097.69;3052456;19;1624;-48
2022/07/14 03:24:30;;;;;;;;;;;;;;;18.78;100.00;100102.69;3053080;19;957;-48
2022/07/14 03:25:34;;;;;;;;;;;;;;;18.81;100.00;100100.53;3052895;19;1089;-48
2022/07/14 03:26:36;;;;;;;;;;;;;;;18.85;100.00;100107.28;3053693;19;1049;-49
2022/07/14 03:27:41;;;;;;;;;;;;;;;18.87;100.00;100108.00;3052632;19;1049;-48
2022/07/14 03:28:46;;;;;;;;;;;;;;;18.90;100.00;100104.13;3052664;19;1184;-48
2022/07/14 03:29:48;;;;;;;;;;;;;;;18.91;100.00;100120.22;3052287;19;1079;-48
2022/07/14 03:30:57;;;;;;;;;;;;;;;18.92;100.00;100127.31;3053314;19;1312;-48
2022/07/14 03:31:59;;;;;;;;;;;;;;;18.93;100.00;100129.00;3052710;19;1071;-48
2022/07/14 03:33:07;;;;;;;;;;;;;;;18.95;100.00;100120.75;3052427;19;1853;-48
2022/07/14 03:34:10;;;;;;;;;;;;;;;19.02;100.00;100122.66;3052527;19;1103;-49
2022/07/14 03:35:15;;;;;;;;;;;;;;;19.21;100.00;100128.84;3045161;19;965;-48
2022/07/14 03:36:19;;;;;;;;;;;;;;;19.85;100.00;100135.69;3043702;19;1096;-48
2022/07/14 03:37:23;;;;;;;;;;;;;;;19.98;100.00;100150.50;3045649;19;940;-48
2022/07/14 03:38:32;;;;;;;;;;;;;;;20.01;100.00;100163.72;3046695;19;1092;-48
2022/07/14 03:39:39;;;;;;;;;;;;;;;19.99;100.00;100157.59;3047693;19;1189;-48
2022/07/14 03:40:44;;;;;;;;;;;;;;;19.85;100.00;100141.09;3044782;19;1297;-48
2022/07/14 03:41:47;;;;;;;;;;;;;;;20.23;100.00;100172.25;3047890;19;1086;-49
2022/07/14 03:42:51;;;;;;;;;;;;;;;20.80;100.00;100170.53;3052510;19;1146;-49
2022/07/14 03:43:54;;;;;;;;;;;;;;;21.38;100.00;100181.25;3051113;19;1715;-48
2022/07/14 03:45:00;;;;;;;;;;;;;;;21.35;100.00;100197.06;3053151;19;1048;-48
2022/07/14 03:46:02;;;;;;;;;;;;;;;21.22;100.00;100185.88;3052858;19;1229;-47
2022/07/14 03:47:08;;;;;;;;;;;;;;;21.13;100.00;100191.25;3052498;19;1544;-49
2022/07/14 03:48:13;;;;;;;;;;;;;;;21.39;100.00;100192.97;3052574;19;989;-48
2022/07/14 03:49:19;;;;;;;;;;;;;;;22.10;100.00;100195.69;3053163;19;1059;-49
2022/07/14 03:50:25;;;;;;;;;;;;;;;22.71;100.00;100204.91;3052752;19;1021;-48
2022/07/14 03:51:27;;;;;;;;;;;;;;;23.04;100.00;100208.31;3051625;19;1706;-49
2022/07/14 03:52:32;;;;;;;;;;;;;;;23.45;100.00;100211.53;3052834;19;1188;-49
2022/07/14 03:53:34;;;;;;;;;;;;;;;24.16;100.00;100236.53;3052610;19;1862;-49
2022/07/14 03:54:40;;;;;;;;;;;;;;;24.74;100.00;100236.50;3052896;19;1067;-50
2022/07/14 03:55:42;;;;;;;;;;;;;;;25.38;100.00;100249.38;3052303;19;1294;-48
2022/07/14 03:56:54;;;;;;;;;;;;;;;26.00;100.00;100246.75;3049621;19;857;-48
2022/07/14 03:58:00;;;;;;;;;;;;;;;26.53;100.00;100258.03;3045175;19;899;-49
2022/07/14 03:59:07;;;;;;;;;;;;;;;26.99;100.00;100249.16;3044179;19;1384;-49
2022/07/14 04:00:10;;;;;;;;;;;;;;;27.17;100.00;100257.66;3044898;19;1154;-49
2022/07/14 04:01:20;;;;;;;;;;;;;;;27.51;100.00;100268.44;3047319;19;973;-50
2022/07/14 04:02:24;;;;;;;;;;;;;;;27.92;96.59;100267.38;3047521;19;1083;-49
2022/07/14 04:03:30;;;;;;;;;;;;;;;28.25;92.97;100268.25;3047262;19;970;-49
2022/07/14 04:04:32;;;;;;;;;;;;;;;28.54;88.92;100266.88;3051091;19;1185;-49
2022/07/14 04:05:37;;;;;;;;;;;;;;;28.66;86.49;100264.28;3052379;19;1092;-49
2022/07/14 04:06:42;;;;;;;;;;;;;;;28.88;85.09;100268.44;3052139;19;1384;-49
2022/07/14 04:07:47;;;;;;;;;;;;;;;29.12;83.40;100265.97;3052631;19;1123;-49
2022/07/14 04:08:51;;;;;;;;;;;;;;;29.28;81.81;100280.06;3051678;19;1078;-49
2022/07/14 04:09:55;;;;;;;;;;;;;;;29.68;79.91;100269.63;3052520;19;1427;-49
2022/07/14 04:10:58;;;;;;;;;;;;;;;30.06;78.25;100266.78;3051837;19;1547;-48
2022/07/14 04:12:03;;;;;;;;;;;;;;;30.47;76.21;100272.69;3052163;19;956;-48
2022/07/14 04:13:05;;;;;;;;;;;;;;;30.86;74.09;100276.91;3052024;19;1154;-49
2022/07/14 04:14:09;;;;;;;;;;;;;;;31.20;72.14;100269.88;3051177;19;1850;-49
2022/07/14 04:15:11;;;;;;;;;;;;;;;31.46;70.35;100273.09;3051771;19;1710;-49
2022/07/14 04:16:16;;;;;;;;;;;;;;;31.68;69.09;100270.63;3051481;19;1745;-49
2022/07/14 04:17:22;;;;;;;;;;;;;;;32.05;67.72;100270.41;3051169;19;1071;-49
2022/07/14 04:18:27;;;;;;;;;;;;;;;31.49;68.18;100271.78;3051551;19;1157;-49
2022/07/14 04:19:29;;;;;;;;;;;;;;;30.63;69.58;100272.13;3046510;19;1111;-49
2022/07/14 04:20:36;;;;;;;;;;;;;;;30.61;70.27;100271.50;3044545;19;1703;-49
2022/07/14 04:21:39;;;;;;;;;;;;;;;30.90;69.80;100270.72;3044283;19;881;-49
2022/07/14 04:22:43;;;;;;;;;;;;;;;31.35;68.83;100270.31;3045113;19;886;-49
2022/07/14 04:23:46;;;;;;;;;;;;;;;31.67;66.94;100263.44;3046917;19;1342;-49
2022/07/14 04:24:50;;;;;;;;;;;;;;;31.91;65.57;100268.97;3046732;19;1009;-49
2022/07/14 04:25:53;;;;;;;;;;;;;;;32.34;64.89;100269.50;3046861;19;1468;-49
2022/07/14 04:26:58;;;;;;;;;;;;;;;32.70;63.38;100268.34;3050976;19;947;-49
2022/07/14 04:28:00;;;;;;;;;;;;;;;33.02;62.30;100277.00;3052843;19;993;-48
2022/07/14 04:29:05;;;;;;;;;;;;;;;33.29;61.16;100280.06;3051957;19;1834;-49
2022/07/14 04:30:07;;;;;;;;;;;;;;;33.53;59.97;100284.38;3052851;19;1091;-48
2022/07/14 04:31:12;;;;;;;;;;;;;;;33.00;59.46;100273.66;3051327;19;871;-49
2022/07/14 04:32:15;;;;;;;;;;;;;;;32.38;60.50;100276.19;3050084;19;1818;-49
2022/07/14 04:33:23;;;;;;;;;;;;;;;31.49;62.85;100277.31;3047277;19;1780;-49
2022/07/14 04:34:27;;;;;;;;;;;;;;;30.44;65.99;100276.75;3050462;19;1851;-49
2022/07/14 04:35:31;;;;;;;;;;;;;;;31.06;66.28;100283.81;3052042;19;1852;-49
2022/07/14 04:36:33;;;;;;;;;;;;;;;31.59;65.41;100283.06;3051541;19;975;-49
2022/07/14 04:37:40;;;;;;;;;;;;;;;32.07;64.67;100271.88;3051117;19;967;-49
2022/07/14 04:39:16;;;;;;;;;;;;;;;32.51;62.23;100281.44;3051276;19;1237;-48
2022/07/14 04:40:19;;;;;;;;;;;;;;;32.80;61.35;100278.78;3052348;19;931;-48
2022/07/14 04:41:24;;;;;;;;;;;;;;;33.06;60.78;100283.75;3050285;19;1869;-48
2022/07/14 04:42:29;;;;;;;;;;;;;;;33.42;59.93;100281.66;3043581;19;1117;-49
2022/07/14 04:43:31;;;;;;;;;;;;;;;33.76;58.83;100288.94;3043791;19;1332;-49
2022/07/14 04:44:41;;;;;;;;;;;;;;;34.00;57.91;100288.75;3043853;19;1746;-55
2022/07/14 04:45:43;;;;;;;;;;;;;;;34.13;56.80;100291.19;3045900;19;1149;-49
2022/07/14 04:46:48;;;;;;;;;;;;;;;34.28;56.38;100285.91;3046792;19;1009;-48
2022/07/14 04:47:51;;;;;;;;;;;;;;;34.43;55.75;100282.50;3047090;19;1488;-48
2022/07/14 04:52:52;;;;;;;;;;;;;;;35.00;54.68;100285.78;3054895;19;1008;-49
2022/07/14 04:54:32;;;;;;;;;;;;;;;35.19;54.30;100284.31;3053650;19;1873;-49
2022/07/14 04:55:47;;;;;;;;;;;;;;;35.30;54.09;100291.66;3054951;19;1012;-49
2022/07/14 04:57:10;;;;;;;;;;;;;;;35.47;53.38;100287.97;3054941;19;1097;-48
2022/07/14 04:58:16;;;;;;;;;;;;;;;35.59;53.16;100291.41;3055183;19;1016;-49
2022/07/14 04:59:21;;;;;;;;;;;;;;;35.53;53.21;100286.88;3054887;19;932;-49
2022/07/14 05:00:23;;;;;;;;;;;;;;;35.55;52.82;100282.75;3054346;19;1127;-49
2022/07/14 05:01:27;;;;;;;;;;;;;;;35.41;53.00;100289.00;3054485;19;1174;-49
2022/07/14 05:02:32;;;;;;;;;;;;;;;35.44;52.67;100283.75;3054855;19;1194;-49
2022/07/14 05:03:35;;;;;;;;;;;;;;;35.52;52.71;100285.22;3054880;19;1750;-50
2022/07/14 05:04:40;;;;;;;;;;;;;;;35.42;52.13;100274.84;3047646;19;1192;-49
2022/07/14 05:05:43;;;;;;;;;;;;;;;35.51;52.15;100280.75;3046358;19;1473;-50
2022/07/14 05:06:49;;;;;;;;;;;;;;;35.57;52.38;100282.50;3047342;19;924;-49
2022/07/14 05:07:54;;;;;;;;;;;;;;;35.58;52.42;100290.56;3048353;19;1061;-49
2022/07/14 05:09:01;;;;;;;;;;;;;;;35.82;51.83;100282.75;3045000;19;1745;-48
2022/07/14 05:10:09;;;;;;;;;;;;;;;35.83;51.51;100281.66;3046598;19;1228;-48
2022/07/14 05:11:11;;;;;;;;;;;;;;;35.73;51.45;100284.31;3049488;19;1302;-49
2022/07/14 05:12:17;;;;;;;;;;;;;;;34.92;53.33;100280.66;3054542;19;1754;-48
2022/07/14 05:13:21;;;;;;;;;;;;;;;34.87;53.34;100280.63;3053609;19;1502;-49
2022/07/14 05:14:26;;;;;;;;;;;;;;;33.63;55.67;100283.69;3051917;19;1841;-49
2022/07/14 05:15:28;;;;;;;;;;;;;;;32.88;57.21;100275.63;3052951;19;1473;-49
2022/07/14 05:16:33;;;;;;;;;;;;;;;32.08;59.10;100267.19;3053294;19;1101;-49
2022/07/14 05:17:58;;;;;;;;;;;;;;;31.14;63.20;100264.25;3055292;19;987;-48
2022/07/14 05:19:00;;;;;;;;;;;;;;;30.52;66.07;100264.59;3055368;19;1209;-48
2022/07/14 05:20:05;;;;;;;;;;;;;;;30.05;68.41;100261.50;3054342;19;924;-48
2022/07/14 05:21:08;;;;;;;;;;;;;;;29.45;70.50;100261.16;3054768;19;932;-49
2022/07/14 05:22:13;;;;;;;;;;;;;;;28.98;72.53;100266.06;3054054;19;1097;-49
2022/07/14 05:23:15;;;;;;;;;;;;;;;28.43;74.71;100269.44;3054796;19;1443;-49
2022/07/14 05:24:19;;;;;;;;;;;;;;;27.88;77.74;100266.16;3055489;19;948;-48
2022/07/14 05:25:22;;;;;;;;;;;;;;;27.62;81.98;100266.16;3054869;19;1163;-48
2022/07/14 05:26:26;;;;;;;;;;;;;;;27.36;85.20;100255.97;3051247;19;1306;-49
2022/07/14 05:27:33;;;;;;;;;;;;;;;26.96;88.49;100263.25;3045706;19;1796;-48
2022/07/14 05:28:38;;;;;;;;;;;;;;;26.74;90.64;100263.38;3045917;19;1714;-48
2022/07/14 05:29:41;;;;;;;;;;;;;;;26.26;90.21;100261.63;3046541;19;1198;-48
2022/07/14 05:30:46;;;;;;;;;;;;;;;25.89;91.04;100269.19;3048780;19;1212;-48
2022/07/14 05:31:48;;;;;;;;;;;;;;;25.62;91.65;100259.06;3049024;19;1336;-48
2022/07/14 05:32:53;;;;;;;;;;;;;;;25.44;93.15;100265.84;3047774;19;1185;-48
2022/07/14 05:33:56;;;;;;;;;;;;;;;25.19;94.69;100264.53;3050207;19;1150;-48
2022/07/14 05:35:01;;;;;;;;;;;;;;;24.92;97.18;100273.44;3053697;19;1837;-48
2022/07/14 05:36:03;;;;;;;;;;;;;;;24.70;98.89;100280.75;3054448;19;1152;-47
2022/07/14 05:37:09;;;;;;;;;;;;;;;24.42;100.00;100265.06;3054361;19;1234;-48
2022/07/14 05:38:11;;;;;;;;;;;;;;;24.25;100.00;100268.19;3053694;19;1677;-47
2022/07/14 05:39:15;;;;;;;;;;;;;;;24.00;100.00;100276.59;3052141;19;1558;-48
2022/07/14 05:40:17;;;;;;;;;;;;;;;23.94;100.00;100258.25;3054768;19;1138;-48